Time;durP1;ratioP1;P1;durP2;ratioP2;P2;SDS_P1;SDS_P2;PMS_P1;PMS_P2;Temp;Humidity;BMP_temperature;BMP_pressure;BME280_temperature;BME280_humidity;BME280_pressure;Samples;Min_cycle;Max_cycle;Signal;HPM_P1;HPM_P2
2022/04/26 03:36:39;;;;;;;6.05;3.50;;;9.00;74.80;;;;;;5100218;28;20059;-70
2022/04/26 03:39:06;;;;;;;4.97;3.40;;;9.10;75.00;;;;;;5097056;28;20077;-69
2022/04/26 03:41:33;;;;;;;6.82;3.58;;;9.00;75.10;;;;;;5091502;28;20587;-69
2022/04/26 03:43:59;;;;;;;4.82;3.75;;;9.10;75.30;;;;;;5089884;28;20040;-69
2022/04/26 03:46:24;;;;;;;6.43;3.45;;;9.00;75.40;;;;;;5092435;28;20089;-69
2022/04/26 03:48:50;;;;;;;4.85;3.67;;;9.10;75.60;;;;;;5082858;28;20020;-70
2022/04/26 03:51:16;;;;;;;5.28;3.50;;;9.10;75.70;;;;;;5083350;28;20059;-70
2022/04/26 03:53:41;;;;;;;5.13;3.42;;;9.00;75.90;;;;;;5089014;28;20020;-69
2022/04/26 03:56:07;;;;;;;7.00;3.53;;;9.00;76.10;;;;;;5088226;28;20085;-70
2022/04/26 03:58:33;;;;;;;6.28;3.92;;;9.00;76.20;;;;;;5092884;28;20375;-70
2022/04/26 04:00:59;;;;;;;5.40;3.20;;;9.00;76.20;;;;;;5098730;28;20035;-70
2022/04/26 04:03:25;;;;;;;5.03;3.35;;;9.00;76.40;;;;;;5089442;28;20027;-69
2022/04/26 04:05:51;;;;;;;4.40;3.10;;;9.00;76.40;;;;;;5090893;28;20032;-69
2022/04/26 04:08:16;;;;;;;5.07;3.70;;;9.00;76.50;;;;;;5088922;28;20107;-69
2022/04/26 04:10:42;;;;;;;8.90;4.00;;;9.00;76.60;;;;;;5084309;28;20024;-72
2022/04/26 04:13:08;;;;;;;6.05;3.50;;;9.00;76.60;;;;;;5091529;28;20490;-71
2022/04/26 04:15:34;;;;;;;7.25;3.85;;;9.00;76.70;;;;;;5091661;28;20036;-72
2022/04/26 04:17:59;;;;;;;7.70;4.38;;;9.00;76.80;;;;;;5075479;28;20020;-72
2022/04/26 04:20:25;;;;;;;7.05;4.10;;;9.00;77.00;;;;;;5084480;28;20103;-71
2022/04/26 04:22:53;;;;;;;6.63;3.88;;;9.00;77.00;;;;;;5088648;28;20050;-69
2022/04/26 04:25:20;;;;;;;7.32;4.28;;;9.00;77.00;;;;;;5090439;28;20502;-69
2022/04/26 04:27:45;;;;;;;6.90;4.13;;;9.00;77.20;;;;;;5087793;28;20085;-69
2022/04/26 04:30:11;;;;;;;8.43;4.70;;;9.00;77.20;;;;;;5088690;28;20040;-70
2022/04/26 04:32:37;;;;;;;6.20;4.30;;;8.90;77.50;;;;;;5088159;28;20054;-70
2022/04/26 04:35:03;;;;;;;7.72;4.20;;;9.00;77.60;;;;;;5088549;28;20081;-69
2022/04/26 04:37:29;;;;;;;7.25;4.47;;;9.00;77.60;;;;;;5089484;28;20107;-71
2022/04/26 04:39:54;;;;;;;5.55;4.13;;;8.90;77.80;;;;;;5089644;28;20461;-70
2022/04/26 04:42:21;;;;;;;7.90;4.38;;;8.90;77.90;;;;;;5091335;28;20682;-70
2022/04/26 04:44:47;;;;;;;8.27;4.22;;;8.90;77.90;;;;;;5089204;28;20031;-68
2022/04/26 04:47:12;;;;;;;7.75;4.78;;;8.90;78.00;;;;;;5088038;28;20032;-69
2022/04/26 04:49:38;;;;;;;6.97;4.57;;;8.90;78.00;;;;;;5104339;28;20090;-67
2022/04/26 04:52:04;;;;;;;8.23;4.65;;;8.90;78.10;;;;;;5088004;28;20020;-69
2022/04/26 04:54:29;;;;;;;7.60;4.32;;;8.90;78.20;;;;;;5089623;28;20528;-69
2022/04/26 04:56:55;;;;;;;9.07;5.43;;;8.90;78.20;;;;;;5092311;28;20031;-71
2022/04/26 04:59:20;;;;;;;8.77;5.70;;;8.90;78.30;;;;;;5089800;28;20024;-71
2022/04/26 05:01:46;;;;;;;7.78;5.15;;;8.90;78.40;;;;;;5092112;28;20024;-71
2022/04/26 05:04:11;;;;;;;8.02;5.13;;;9.00;78.60;;;;;;5090180;28;20039;-68
2022/04/26 05:06:37;;;;;;;7.68;5.50;;;9.00;78.50;;;;;;5085149;28;20119;-68
2022/04/26 05:09:02;;;;;;;7.80;4.90;;;9.00;78.70;;;;;;5089397;28;20024;-68
2022/04/26 05:11:28;;;;;;;6.05;4.90;;;9.00;78.60;;;;;;5090774;28;20793;-69
2022/04/26 05:13:54;;;;;;;8.45;5.72;;;9.10;78.40;;;;;;5087963;28;20032;-70
2022/04/26 05:16:20;;;;;;;11.10;6.30;;;9.10;78.30;;;;;;5085631;28;20028;-70
2022/04/26 05:18:45;;;;;;;10.50;6.47;;;9.20;78.30;;;;;;5085757;28;20543;-68
2022/04/26 05:21:15;;;;;;;11.00;6.50;;;9.20;78.40;;;;;;5089805;28;20012;-71
2022/04/26 05:26:26;;;;;;;9.07;6.75;;;9.20;78.50;;;;;;5087214;28;20062;-70
2022/04/26 05:28:52;;;;;;;11.48;8.50;;;9.20;78.40;;;;;;5086839;28;20028;-70
2022/04/26 05:31:17;;;;;;;8.75;6.35;;;9.20;78.30;;;;;;5088763;28;20023;-70
2022/04/26 05:33:43;;;;;;;11.88;5.70;;;9.20;78.20;;;;;;5088799;28;20475;-70
2022/04/26 05:36:09;;;;;;;11.13;6.90;;;9.30;78.10;;;;;;5094992;28;20032;-69
2022/04/26 05:38:34;;;;;;;8.95;6.05;;;9.40;77.90;;;;;;5089066;28;20024;-70
2022/04/26 05:41:00;;;;;;;9.43;6.55;;;9.40;77.80;;;;;;5093917;28;20050;-70
2022/04/26 05:43:26;;;;;;;9.52;6.88;;;9.40;77.70;;;;;;5098380;28;20515;-69
2022/04/26 05:45:52;;;;;;;11.55;6.65;;;9.40;77.70;;;;;;5087557;28;20052;-69
2022/04/26 05:48:18;;;;;;;12.10;7.75;;;9.40;77.80;;;;;;5089994;28;20101;-73
2022/04/26 05:50:43;;;;;;;8.98;7.28;;;9.40;77.70;;;;;;5103202;27;20521;-72
2022/04/26 05:53:09;;;;;;;10.38;7.82;;;9.40;77.90;;;;;;5084126;28;20020;-70
2022/04/26 05:55:34;;;;;;;11.02;7.38;;;9.40;77.90;;;;;;5085704;28;20111;-70
2022/04/26 05:58:02;;;;;;;9.70;6.75;;;9.50;77.80;;;;;;5088194;28;20020;-70
2022/04/26 06:00:27;;;;;;;9.73;7.05;;;9.60;77.60;;;;;;5086708;28;20028;-70
2022/04/26 06:02:53;;;;;;;12.35;8.18;;;9.60;77.40;;;;;;5086430;28;20548;-70
2022/04/26 06:05:18;;;;;;;11.55;7.30;;;9.60;77.30;;;;;;5088531;28;20021;-70
2022/04/26 06:07:44;;;;;;;12.55;8.27;;;9.60;77.20;;;;;;5088239;28;20052;-69
2022/04/26 06:10:10;;;;;;;12.60;7.60;;;9.60;77.30;;;;;;5088532;28;20501;-70
2022/04/26 06:12:37;;;;;;;10.52;6.50;;;9.70;77.40;;;;;;5086399;28;20150;-70
2022/04/26 06:15:03;;;;;;;10.02;6.75;;;9.80;77.20;;;;;;5087237;28;20099;-70
2022/04/26 06:17:28;;;;;;;10.70;6.72;;;9.90;76.80;;;;;;5086571;28;20153;-70
2022/04/26 06:19:54;;;;;;;10.60;6.65;;;10.00;76.50;;;;;;5087693;28;20418;-68
2022/04/26 06:22:20;;;;;;;12.75;6.32;;;10.20;76.10;;;;;;5087928;28;20081;-69
2022/04/26 06:24:45;;;;;;;8.27;5.85;;;10.20;75.80;;;;;;5087532;28;20020;-70
2022/04/26 06:27:11;;;;;;;10.38;6.18;;;10.20;75.70;;;;;;5088429;28;20417;-69
2022/04/26 06:29:37;;;;;;;10.80;6.47;;;10.30;75.60;;;;;;5087013;28;20035;-69
2022/04/26 06:32:03;;;;;;;9.70;5.90;;;10.30;75.50;;;;;;5086074;28;20054;-69
2022/04/26 06:34:28;;;;;;;7.75;6.07;;;10.40;75.30;;;;;;5088972;28;20092;-69
2022/04/26 06:36:54;;;;;;;9.05;6.07;;;10.50;75.10;;;;;;5089044;28;20386;-68
2022/04/26 06:39:19;;;;;;;8.48;5.65;;;10.70;74.80;;;;;;5097277;28;20012;-69
2022/04/26 06:41:46;;;;;;;14.48;7.15;;;10.70;74.30;;;;;;5077811;28;20675;-69
2022/04/26 06:44:12;;;;;;;10.77;6.65;;;10.70;74.20;;;;;;5086453;28;20046;-69
2022/04/26 06:46:37;;;;;;;9.45;5.95;;;10.90;73.90;;;;;;5084058;28;20549;-69
2022/04/26 06:49:04;;;;;;;10.15;5.72;;;11.20;73.40;;;;;;5087547;28;20525;-71
2022/04/26 06:51:40;;;;;;;7.25;5.10;;;11.40;72.40;;;;;;5087667;28;20112;-70
2022/04/26 06:54:06;;;;;;;9.13;5.60;;;11.50;72.10;;;;;;5083446;28;20575;-70
2022/04/26 06:56:32;;;;;;;11.82;7.47;;;11.40;71.70;;;;;;5088580;28;20026;-70
2022/04/26 06:58:58;;;;;;;9.77;5.35;;;11.40;71.40;;;;;;5084893;28;20020;-70
2022/04/26 07:01:23;;;;;;;10.43;5.90;;;11.40;71.50;;;;;;5087932;28;20036;-70
2022/04/26 07:03:49;;;;;;;9.45;5.88;;;11.70;71.20;;;;;;5083653;28;20020;-69
2022/04/26 07:06:14;;;;;;;11.43;5.97;;;12.10;70.30;;;;;;5089374;28;20367;-70
2022/04/26 07:08:40;;;;;;;8.20;5.50;;;12.10;69.70;;;;;;5086259;28;20536;-71
2022/04/26 07:11:06;;;;;;;8.70;5.13;;;11.80;69.90;;;;;;5087141;28;20016;-70
2022/04/26 07:13:31;;;;;;;11.38;5.43;;;11.70;70.30;;;;;;5082364;28;20024;-69
2022/04/26 07:15:57;;;;;;;8.77;5.13;;;11.70;70.70;;;;;;5083786;28;20099;-68
2022/04/26 07:18:22;;;;;;;10.68;5.60;;;11.70;70.60;;;;;;5081439;28;20036;-71
2022/04/26 07:20:48;;;;;;;10.70;6.40;;;11.60;70.70;;;;;;5088513;28;20062;-69
2022/04/26 07:23:13;;;;;;;11.55;5.93;;;11.40;70.80;;;;;;5080347;28;20081;-69
2022/04/26 07:25:40;;;;;;;10.35;5.95;;;11.30;71.00;;;;;;5085873;28;20081;-68
2022/04/26 07:28:06;;;;;;;8.25;6.03;;;11.10;71.10;;;;;;5086237;28;20043;-68
2022/04/26 07:30:34;;;;;;;7.43;5.32;;;10.90;71.30;;;;;;5086484;28;20028;-69
2022/04/26 07:35:48;;;;;;;8.07;6.05;;;10.80;72.10;;;;;;5085116;28;20077;-70
2022/04/26 07:38:14;;;;;;;9.00;5.80;;;10.70;72.10;;;;;;5087497;28;20020;-67
2022/04/26 07:40:40;;;;;;;7.70;4.65;;;10.70;72.40;;;;;;5091531;28;20548;-70
2022/04/26 07:43:06;;;;;;;7.03;4.80;;;10.70;72.50;;;;;;5079458;28;20020;-70
2022/04/26 07:45:32;;;;;;;9.13;5.43;;;10.70;72.40;;;;;;5091796;28;20527;-70
2022/04/26 07:47:59;;;;;;;8.57;5.72;;;10.60;72.50;;;;;;5090636;28;20030;-69
2022/04/26 07:50:25;;;;;;;8.75;4.45;;;10.70;72.60;;;;;;5090429;28;20020;-69
2022/04/26 07:52:50;;;;;;;10.80;5.10;;;10.70;72.60;;;;;;5088189;28;20551;-67
2022/04/26 07:55:16;;;;;;;9.82;5.22;;;10.70;72.60;;;;;;5092376;28;20044;-69
2022/04/26 07:57:42;;;;;;;7.80;5.47;;;10.80;72.60;;;;;;5088879;28;20051;-68
2022/04/26 08:00:08;;;;;;;9.93;5.60;;;10.80;72.60;;;;;;5085088;28;20085;-71
2022/04/26 08:02:34;;;;;;;7.22;4.75;;;11.00;72.30;;;;;;5083914;28;20028;-70
2022/04/26 08:05:01;;;;;;;8.20;5.03;;;11.00;72.20;;;;;;5093135;28;20035;-70
2022/04/26 08:07:29;;;;;;;10.70;6.05;;;11.20;72.00;;;;;;5088459;28;20016;-70
2022/04/26 08:09:58;;;;;;;8.05;4.80;;;11.20;71.60;;;;;;5088269;28;20035;-70
2022/04/26 08:12:23;;;;;;;9.23;5.00;;;11.30;71.50;;;;;;5091703;28;20073;-70
2022/04/26 08:14:49;;;;;;;8.15;4.38;;;11.40;71.10;;;;;;5087881;28;20091;-70
2022/04/26 08:17:15;;;;;;;6.80;4.80;;;11.50;70.40;;;;;;5091910;28;20016;-70
2022/04/26 08:19:41;;;;;;;8.30;4.65;;;11.50;69.30;;;;;;5093483;28;20099;-70
2022/04/26 08:22:07;;;;;;;7.85;4.40;;;11.50;68.60;;;;;;5103424;28;20417;-70
2022/04/26 08:27:23;;;;;;;5.68;3.67;;;11.70;68.40;;;;;;5087499;28;20047;-70
2022/04/26 08:29:55;;;;;;;7.95;4.57;;;12.00;67.90;;;;;;5091872;28;20047;-70
2022/04/26 08:32:22;;;;;;;6.45;3.90;;;12.10;66.80;;;;;;5085860;28;20521;-70
2022/04/26 08:34:48;;;;;;;7.30;3.42;;;12.20;66.50;;;;;;5091999;28;20047;-70
2022/04/26 08:37:14;;;;;;;4.20;3.38;;;12.40;66.30;;;;;;5090856;28;20443;-70
2022/04/26 08:39:39;;;;;;;6.55;3.38;;;12.60;65.30;;;;;;5091015;28;20095;-70
2022/04/26 08:42:06;;;;;;;5.90;3.28;;;12.80;63.90;;;;;;5090160;28;20050;-70
2022/04/26 08:44:32;;;;;;;5.38;3.58;;;13.00;63.80;;;;;;5090636;28;20081;-70
2022/04/26 08:52:28;;;;;;;5.85;3.20;;;13.30;58.90;;;;;;5091367;28;20106;-68
2022/04/26 08:54:54;;;;;;;5.82;3.50;;;13.40;58.90;;;;;;5092275;28;20100;-69
2022/04/26 08:57:20;;;;;;;9.00;3.50;;;13.50;57.00;;;;;;5093396;28;20044;-69
2022/04/26 08:59:47;;;;;;;4.97;3.10;;;13.50;56.50;;;;;;5090421;28;20016;-69
2022/04/26 09:02:18;;;;;;;6.50;3.17;;;13.50;55.80;;;;;;5091028;28;20028;-70
2022/04/26 09:04:44;;;;;;;5.05;3.28;;;13.60;56.50;;;;;;5095118;28;20020;-70
2022/04/26 09:07:12;;;;;;;6.45;3.38;;;13.80;57.00;;;;;;5089525;28;20055;-70
2022/04/26 09:09:40;;;;;;;5.57;2.92;;;13.90;55.60;;;;;;5090340;28;20069;-69
2022/04/26 09:12:10;;;;;;;5.78;3.08;;;14.00;56.20;;;;;;5085298;28;20047;-70
2022/04/26 09:14:47;;;;;;;3.92;2.35;;;14.10;56.30;;;;;;5089269;28;20028;-69
2022/04/26 09:17:16;;;;;;;4.47;2.90;;;14.30;56.10;;;;;;5083709;28;20599;-70
2022/04/26 09:19:52;;;;;;;4.60;3.15;;;14.40;55.50;;;;;;5089419;28;20024;-69
2022/04/26 09:22:18;;;;;;;6.32;3.20;;;14.40;54.00;;;;;;5088262;28;20109;-70
2022/04/26 09:25:05;;;;;;;4.78;3.38;;;14.40;53.30;;;;;;5087150;28;20063;-69
2022/04/26 09:27:35;;;;;;;5.10;3.15;;;14.30;51.90;;;;;;5089316;28;20479;-70
2022/04/26 09:30:08;;;;;;;5.63;3.38;;;14.20;52.40;;;;;;5089343;28;20054;-70
2022/04/26 09:32:48;;;;;;;6.65;3.70;;;14.10;52.70;;;;;;5084288;28;20110;-70
2022/04/26 09:35:32;;;;;;;6.13;3.53;;;14.00;52.50;;;;;;5088100;28;20024;-69
2022/04/26 09:38:02;;;;;;;6.40;3.90;;;13.90;52.70;;;;;;5088092;28;20024;-69
2022/04/26 09:40:31;;;;;;;5.40;3.50;;;14.00;52.90;;;;;;5089083;28;20054;-70
2022/04/26 09:42:57;;;;;;;5.38;3.17;;;14.00;52.50;;;;;;5088415;28;20126;-69
2022/04/26 09:45:22;;;;;;;7.00;3.10;;;13.90;51.20;;;;;;5088723;28;20456;-69
2022/04/26 09:47:50;;;;;;;4.47;3.05;;;13.90;51.40;;;;;;5088693;28;20032;-69
2022/04/26 09:50:17;;;;;;;5.13;3.08;;;13.90;52.10;;;;;;5087808;28;20053;-69
2022/04/26 09:52:42;;;;;;;4.43;3.20;;;14.00;52.20;;;;;;5086441;28;20024;-69
2022/04/26 09:55:10;;;;;;;6.15;3.25;;;14.00;52.60;;;;;;5090398;28;20073;-69
2022/04/26 09:57:38;;;;;;;5.15;3.17;;;14.10;53.30;;;;;;5088185;28;20450;-69
2022/04/26 10:00:06;;;;;;;5.60;3.08;;;14.20;53.20;;;;;;5090118;28;20078;-69
2022/04/26 10:02:33;;;;;;;4.45;2.88;;;14.20;53.20;;;;;;5089394;28;20516;-69
2022/04/26 10:05:03;;;;;;;4.32;3.10;;;14.30;52.30;;;;;;5089085;28;20059;-69
2022/04/26 10:07:35;;;;;;;9.30;3.67;;;14.30;51.80;;;;;;5089263;28;20024;-70
2022/04/26 10:10:06;;;;;;;6.35;3.75;;;14.30;51.20;;;;;;5089269;28;20049;-68
2022/04/26 10:12:33;;;;;;;4.40;3.15;;;14.30;52.10;;;;;;5088810;28;20027;-69
2022/04/26 10:15:00;;;;;;;7.68;3.40;;;14.40;52.70;;;;;;5106271;28;20559;-69
2022/04/26 10:17:26;;;;;;;5.18;3.10;;;14.60;53.00;;;;;;5088802;28;20043;-69
2022/04/26 10:19:51;;;;;;;5.57;3.10;;;14.70;53.00;;;;;;5090131;28;20081;-70
2022/04/26 10:22:56;;;;;;;4.65;3.28;;;14.80;53.00;;;;;;5088525;28;20393;-70
2022/04/26 10:25:23;;;;;;;5.65;3.50;;;14.90;52.90;;;;;;5087458;28;20036;-69
2022/04/26 10:28:16;;;;;;;4.50;3.20;;;15.00;52.30;;;;;;5088047;28;20072;-69
2022/04/26 10:30:53;;;;;;;5.03;3.40;;;15.00;52.10;;;;;;5083386;28;20024;-70
2022/04/26 10:33:38;;;;;;;7.60;4.43;;;15.10;51.50;;;;;;5087849;28;20052;-70
2022/04/26 10:36:28;;;;;;;6.50;3.53;;;15.20;50.50;;;;;;5088392;28;20402;-70
2022/04/26 10:39:06;;;;;;;5.55;3.20;;;15.10;50.80;;;;;;5093500;28;20053;-70
2022/04/26 10:41:45;;;;;;;4.47;2.90;;;15.10;50.90;;;;;;5088658;28;20074;-70
2022/04/26 10:44:14;;;;;;;4.68;3.00;;;15.10;50.90;;;;;;5087192;28;20076;-71
2022/04/26 10:46:44;;;;;;;6.40;3.83;;;15.30;50.80;;;;;;5088804;28;20077;-70
2022/04/26 10:49:24;;;;;;;3.35;2.78;;;15.40;50.00;;;;;;5087147;28;20039;-70
2022/04/26 10:51:57;;;;;;;5.72;2.90;;;15.60;50.40;;;;;;5084564;28;20024;-71
2022/04/26 10:54:58;;;;;;;3.50;2.47;;;15.70;48.80;;;;;;5092432;28;20590;-70
2022/04/26 10:57:28;;;;;;;2.95;2.47;;;15.80;49.10;;;;;;5093466;28;20110;-71
2022/04/26 11:00:00;;;;;;;5.10;2.60;;;15.90;48.10;;;;;;5083193;28;20028;-71
2022/04/26 11:02:28;;;;;;;4.78;2.70;;;16.10;48.10;;;;;;5087877;28;20481;-71
2022/04/26 11:05:05;;;;;;;4.05;2.78;;;16.10;47.20;;;;;;5087456;28;20024;-69
2022/04/26 11:07:31;;;;;;;5.85;2.90;;;16.00;46.40;;;;;;5084191;28;20028;-70
2022/04/26 11:09:59;;;;;;;4.32;2.80;;;15.90;46.10;;;;;;5089642;28;20047;-70
2022/04/26 11:12:29;;;;;;;5.55;2.88;;;15.80;46.70;;;;;;5096265;28;20020;-69
2022/04/26 11:14:57;;;;;;;4.10;2.97;;;15.70;46.90;;;;;;5091399;28;20089;-69
2022/04/26 11:17:24;;;;;;;2.75;2.35;;;15.60;47.00;;;;;;5097354;28;20035;-70
2022/04/26 11:19:53;;;;;;;3.63;2.75;;;15.70;47.40;;;;;;5099564;28;20043;-71
2022/04/26 11:22:19;;;;;;;4.72;3.20;;;15.90;47.50;;;;;;5099234;28;20043;-70
2022/04/26 11:30:31;;;;;;;4.13;2.60;;;16.40;47.00;;;;;;5097720;28;20039;-71
2022/04/26 11:33:15;;;;;;;4.00;2.50;;;16.40;46.80;;;;;;5097045;28;20143;-68
2022/04/26 11:35:42;;;;;;;4.22;3.22;;;16.60;46.80;;;;;;5088923;28;20020;-71
2022/04/26 11:38:13;;;;;;;4.18;2.97;;;16.60;46.30;;;;;;5089620;28;20026;-69
2022/04/26 11:40:56;;;;;;;6.72;3.10;;;16.60;46.60;;;;;;5092669;28;20069;-70
2022/04/26 11:43:23;;;;;;;4.82;3.20;;;16.50;46.50;;;;;;5091450;28;20024;-68
2022/04/26 11:45:53;;;;;;;5.03;3.22;;;16.60;46.80;;;;;;5092276;28;20552;-70
2022/04/26 11:48:20;;;;;;;4.80;3.22;;;16.40;46.20;;;;;;5090744;28;20028;-70
2022/04/26 11:50:48;;;;;;;5.85;2.88;;;16.20;46.90;;;;;;5092090;28;20089;-69
2022/04/26 11:53:18;;;;;;;4.15;2.83;;;16.30;47.40;;;;;;5092720;28;20016;-70
2022/04/26 11:55:46;;;;;;;5.63;3.25;;;16.30;47.60;;;;;;5091304;28;20418;-67
2022/04/26 11:58:22;;;;;;;3.97;2.72;;;16.20;47.20;;;;;;5094450;28;20031;-69
2022/04/26 12:00:53;;;;;;;3.55;2.60;;;16.20;46.90;;;;;;5092197;28;20069;-70
2022/04/26 12:03:20;;;;;;;3.88;2.92;;;16.20;46.80;;;;;;5091366;28;20020;-71
2022/04/26 12:05:51;;;;;;;5.47;3.97;;;16.20;46.50;;;;;;5089714;28;20077;-71
2022/04/26 12:08:17;;;;;;;5.15;3.17;;;16.40;45.80;;;;;;5091928;28;20020;-72
2022/04/26 12:10:45;;;;;;;4.32;2.95;;;16.20;46.40;;;;;;5091095;28;20486;-71
2022/04/26 12:13:11;;;;;;;5.03;2.97;;;16.40;46.70;;;;;;5091043;28;20078;-72
2022/04/26 12:15:40;;;;;;;4.85;3.35;;;16.60;46.90;;;;;;5091055;28;20557;-68
2022/04/26 12:18:07;;;;;;;3.00;2.47;;;16.70;46.00;;;;;;5090894;28;20032;-71
2022/04/26 12:20:37;;;;;;;2.25;1.92;;;16.90;46.20;;;;;;5091456;28;20025;-71
2022/04/26 12:23:06;;;;;;;6.35;3.45;;;17.10;45.70;;;;;;5090473;28;20028;-70
2022/04/26 12:25:35;;;;;;;5.32;2.80;;;17.10;44.00;;;;;;5090048;28;20024;-71
2022/04/26 12:28:07;;;;;;;6.68;3.05;;;17.20;44.50;;;;;;5090719;28;20031;-70
2022/04/26 12:30:37;;;;;;;4.18;2.90;;;17.00;44.00;;;;;;5090878;28;20024;-69
2022/04/26 12:33:04;;;;;;;4.88;2.85;;;16.90;44.40;;;;;;5089063;28;20055;-71
2022/04/26 12:35:31;;;;;;;4.20;3.00;;;16.70;44.30;;;;;;5086089;28;20020;-71
2022/04/26 12:38:09;;;;;;;4.15;2.90;;;16.70;44.50;;;;;;5088071;28;20064;-70
2022/04/26 12:40:35;;;;;;;5.80;3.10;;;16.80;44.30;;;;;;5089371;28;20032;-71
2022/04/26 12:43:02;;;;;;;3.08;2.65;;;16.80;43.90;;;;;;5086837;28;20024;-71
2022/04/26 12:45:28;;;;;;;4.15;2.30;;;16.90;43.80;;;;;;5092163;28;20615;-70
2022/04/26 12:51:24;;;;;;;4.18;2.80;;;17.00;43.30;;;;;;5090021;28;20566;-70
2022/04/26 12:53:51;;;;;;;4.07;2.38;;;17.00;42.80;;;;;;5095425;28;20463;-70
2022/04/26 12:56:18;;;;;;;3.45;2.30;;;17.00;43.50;;;;;;5094571;28;20032;-70
2022/04/26 12:58:47;;;;;;;5.05;2.60;;;17.00;43.60;;;;;;5089765;28;20547;-70
2022/04/26 13:01:13;;;;;;;3.38;2.08;;;17.10;43.00;;;;;;5089447;28;20032;-70
2022/04/26 13:03:40;;;;;;;2.97;2.20;;;17.00;43.50;;;;;;5088600;28;20047;-70
2022/04/26 13:06:17;;;;;;;3.10;2.30;;;16.90;43.80;;;;;;5091050;28;20032;-70
2022/04/26 13:08:45;;;;;;;3.67;2.00;;;17.10;43.60;;;;;;5092232;28;20457;-70
2022/04/26 13:11:12;;;;;;;3.15;1.83;;;17.40;43.60;;;;;;5085455;28;20622;-70
2022/04/26 13:13:41;;;;;;;4.00;2.15;;;17.70;43.20;;;;;;5090859;28;20031;-70
2022/04/26 13:16:07;;;;;;;3.72;2.53;;;17.70;42.90;;;;;;5089310;28;20032;-69
2022/04/26 13:18:33;;;;;;;4.13;2.10;;;17.50;42.40;;;;;;5089656;28;20027;-69
2022/04/26 13:20:59;;;;;;;4.15;2.40;;;17.50;42.60;;;;;;5087972;28;20486;-69
2022/04/26 13:23:26;;;;;;;3.88;2.20;;;17.40;41.60;;;;;;5090394;28;20035;-69
2022/04/26 13:25:52;;;;;;;3.35;2.10;;;17.10;42.10;;;;;;5089045;28;20020;-69
2022/04/26 13:28:18;;;;;;;3.50;2.20;;;17.10;43.30;;;;;;5090276;28;20030;-69
2022/04/26 13:30:44;;;;;;;5.30;2.13;;;17.40;42.60;;;;;;5090283;28;20031;-69
2022/04/26 13:33:09;;;;;;;3.95;2.20;;;17.50;42.30;;;;;;5087940;28;20032;-69
2022/04/26 13:35:37;;;;;;;3.08;2.15;;;17.60;42.10;;;;;;5090462;28;20694;-69
2022/04/26 13:38:15;;;;;;;2.92;1.98;;;17.70;41.80;;;;;;5088133;28;20048;-69
2022/04/26 13:40:42;;;;;;;3.35;1.85;;;17.70;41.80;;;;;;5090884;28;20029;-69
2022/04/26 13:43:08;;;;;;;4.20;2.10;;;17.80;41.70;;;;;;5088525;28;20111;-69
2022/04/26 13:45:35;;;;;;;2.92;1.90;;;18.10;41.60;;;;;;5090389;28;20032;-69
2022/04/26 13:48:01;;;;;;;3.90;1.75;;;18.20;41.10;;;;;;5087375;28;20035;-69
2022/04/26 13:50:27;;;;;;;3.38;2.13;;;18.20;40.80;;;;;;5090381;28;20486;-69
2022/04/26 13:52:53;;;;;;;2.53;2.05;;;18.20;40.30;;;;;;5087414;28;20043;-69
2022/04/26 13:55:19;;;;;;;3.03;1.80;;;18.30;40.10;;;;;;5088892;28;20039;-69
2022/04/26 13:57:45;;;;;;;3.55;2.20;;;18.20;40.10;;;;;;5089048;28;20024;-69
2022/04/26 14:00:12;;;;;;;2.88;1.95;;;18.20;39.60;;;;;;5090216;28;20024;-70
2022/04/26 14:02:41;;;;;;;2.13;1.60;;;18.10;39.50;;;;;;5088435;28;20506;-69
2022/04/26 14:05:07;;;;;;;2.22;1.88;;;17.90;39.50;;;;;;5088352;28;20027;-70
2022/04/26 14:07:33;;;;;;;2.85;1.85;;;17.80;39.90;;;;;;5087403;28;20028;-70
2022/04/26 14:09:58;;;;;;;2.88;1.80;;;17.90;39.70;;;;;;5107862;28;20039;-67
2022/04/26 14:12:24;;;;;;;3.13;2.00;;;18.00;40.00;;;;;;5099228;28;20032;-70
2022/04/26 14:23:01;;;;;;;3.20;2.00;;;18.40;39.20;;;;;;5090028;28;20449;-70
2022/04/26 14:25:27;;;;;;;3.00;2.03;;;18.50;39.60;;;;;;5087873;28;20055;-70
2022/04/26 14:27:52;;;;;;;4.18;2.05;;;18.70;39.40;;;;;;5088845;28;20036;-71
2022/04/26 14:30:18;;;;;;;2.88;2.22;;;18.80;39.20;;;;;;5090132;28;20095;-71
2022/04/26 14:32:44;;;;;;;2.33;1.92;;;18.80;39.10;;;;;;5088580;28;20031;-71
2022/04/26 14:35:10;;;;;;;3.00;2.10;;;18.80;38.70;;;;;;5090863;28;20027;-71
2022/04/26 14:37:36;;;;;;;3.47;2.17;;;18.70;38.20;;;;;;5089270;28;20123;-70
2022/04/26 14:40:03;;;;;;;3.17;2.00;;;18.70;38.40;;;;;;5094388;28;20008;-70
2022/04/26 14:42:29;;;;;;;3.22;2.20;;;18.60;38.60;;;;;;5109104;28;20023;-71
2022/04/26 14:44:55;;;;;;;2.70;2.08;;;18.60;38.80;;;;;;5104065;28;20021;-70
2022/04/26 14:47:21;;;;;;;3.22;2.00;;;18.40;39.10;;;;;;5101896;28;20126;-69
2022/04/26 14:49:47;;;;;;;3.50;2.10;;;18.40;39.50;;;;;;5087739;28;20028;-70
2022/04/26 14:52:21;;;;;;;3.60;1.60;;;18.50;39.70;;;;;;5092839;28;20029;-70
2022/04/26 14:54:49;;;;;;;2.50;2.10;;;18.60;40.10;;;;;;5089753;28;20154;-71
2022/04/26 14:57:18;;;;;;;2.60;2.40;;;18.70;40.10;;;;;;5089631;28;20055;-70
2022/04/26 14:59:48;;;;;;;3.63;2.17;;;18.50;39.90;;;;;;5090450;28;20032;-69
2022/04/26 15:02:18;;;;;;;4.40;1.92;;;18.40;40.40;;;;;;5093104;28;20020;-70
2022/04/26 15:04:48;;;;;;;4.30;2.30;;;18.50;40.70;;;;;;5090347;28;20060;-70
2022/04/26 15:07:14;;;;;;;3.10;2.25;;;18.40;40.70;;;;;;5091702;28;20055;-70
2022/04/26 15:09:42;;;;;;;2.85;2.25;;;18.30;40.90;;;;;;5092780;28;20559;-71
2022/04/26 15:17:42;;;;;;;3.75;2.10;;;18.10;41.50;;;;;;5092264;28;20039;-69
2022/04/26 15:20:09;;;;;;;2.78;2.20;;;17.90;41.40;;;;;;5091735;28;20016;-71
2022/04/26 15:22:37;;;;;;;3.65;1.90;;;17.80;41.70;;;;;;5093116;28;20032;-70
2022/04/26 15:25:05;;;;;;;3.58;2.20;;;17.70;41.90;;;;;;5091545;28;20039;-71
2022/04/26 15:27:30;;;;;;;3.47;2.60;;;17.70;42.10;;;;;;5084483;28;20047;-71
2022/04/26 15:29:56;;;;;;;2.85;2.33;;;17.60;42.10;;;;;;5091467;28;20024;-70
2022/04/26 15:32:23;;;;;;;3.88;2.20;;;17.40;42.30;;;;;;5091647;28;20036;-71
2022/04/26 15:34:49;;;;;;;4.38;2.17;;;17.30;42.60;;;;;;5091047;28;20506;-70
2022/04/26 15:37:15;;;;;;;3.17;2.20;;;17.30;42.80;;;;;;5089750;28;20020;-70
2022/04/26 15:39:42;;;;;;;2.67;2.10;;;17.30;42.90;;;;;;5091193;28;20012;-71
2022/04/26 15:42:08;;;;;;;4.30;2.03;;;17.30;43.00;;;;;;5090430;28;20435;-71
2022/04/26 15:44:34;;;;;;;2.80;2.20;;;17.30;43.20;;;;;;5092169;28;20048;-70
2022/04/26 15:47:00;;;;;;;2.83;1.85;;;17.30;43.00;;;;;;5091425;28;20097;-70
2022/04/26 15:49:25;;;;;;;3.55;2.50;;;17.30;43.00;;;;;;5091390;28;20059;-70
2022/04/26 15:51:52;;;;;;;3.00;1.98;;;17.30;43.00;;;;;;5091278;28;20510;-70
2022/04/26 15:54:18;;;;;;;3.58;2.50;;;17.10;43.20;;;;;;5090408;28;20029;-69
2022/04/26 15:56:44;;;;;;;3.00;2.22;;;17.10;43.30;;;;;;5091848;28;20028;-69
2022/04/26 15:59:10;;;;;;;2.70;2.05;;;17.00;43.40;;;;;;5095759;28;20021;-69
2022/04/26 16:01:39;;;;;;;2.78;1.95;;;17.00;43.60;;;;;;5093288;28;20036;-69
2022/04/26 16:04:05;;;;;;;2.83;2.00;;;17.00;43.60;;;;;;5088081;28;20788;-70
2022/04/26 16:06:31;;;;;;;3.10;2.25;;;17.00;43.50;;;;;;5093307;28;20108;-70
2022/04/26 16:20:28;;;;;;;2.78;1.60;;;17.00;43.30;;;;;;5090809;28;20063;-70
2022/04/26 16:22:38;;;;;;;4.53;2.20;;;16.70;43.90;;;;;;5096873;28;20066;-70
2022/04/26 16:25:06;;;;;;;2.47;1.90;;;16.60;43.90;;;;;;5091427;28;20048;-70
2022/04/26 16:27:32;;;;;;;2.22;1.90;;;16.40;44.10;;;;;;5090517;28;20084;-70
2022/04/26 16:30:01;;;;;;;3.22;2.35;;;16.40;44.30;;;;;;5091800;28;20126;-70
2022/04/26 16:32:29;;;;;;;3.40;2.30;;;16.20;43.80;;;;;;5089542;28;20092;-69
2022/04/26 16:34:57;;;;;;;3.83;2.20;;;15.90;44.30;;;;;;5090603;28;20022;-69
2022/04/26 16:37:23;;;;;;;3.58;1.98;;;15.80;44.60;;;;;;5097332;28;20020;-68
2022/04/26 16:39:49;;;;;;;2.65;1.88;;;15.70;44.80;;;;;;5087285;28;20024;-69
2022/04/26 16:42:15;;;;;;;3.83;2.00;;;15.70;44.90;;;;;;5090914;28;20449;-69
2022/04/26 16:44:41;;;;;;;3.85;2.20;;;15.60;44.80;;;;;;5091273;28;20036;-69
2022/04/26 16:47:07;;;;;;;2.70;2.10;;;15.50;45.10;;;;;;5086392;28;20028;-70
2022/04/26 16:49:32;;;;;;;2.83;2.08;;;15.40;45.00;;;;;;5090216;28;20040;-70
2022/04/26 16:51:58;;;;;;;2.65;1.60;;;15.30;45.40;;;;;;5088971;28;20056;-70
2022/04/26 16:54:24;;;;;;;2.92;1.80;;;15.30;45.70;;;;;;5089815;28;20081;-70
2022/04/26 16:56:49;;;;;;;2.40;1.80;;;15.30;45.60;;;;;;5089439;28;20021;-70
2022/04/26 16:59:17;;;;;;;4.25;1.83;;;15.30;45.50;;;;;;5091287;28;20491;-70
2022/04/26 17:01:43;;;;;;;2.28;2.00;;;15.30;45.50;;;;;;5083457;28;20024;-70
2022/04/26 17:04:12;;;;;;;2.10;1.80;;;15.30;45.50;;;;;;5092542;28;20016;-70
2022/04/26 17:06:38;;;;;;;2.33;1.73;;;15.40;45.40;;;;;;5090471;28;20024;-70
2022/04/26 17:09:03;;;;;;;3.53;2.05;;;15.50;45.10;;;;;;5089787;28;20677;-70
2022/04/26 17:11:42;;;;;;;2.97;1.92;;;15.40;44.80;;;;;;5089399;28;20028;-69
2022/04/26 17:14:08;;;;;;;2.15;1.85;;;15.30;44.70;;;;;;5089917;28;20020;-69